Littell, Washington
Current Conditions -  °F | °C
As of 4:55 PM on Wednesday 22 Oct 2014 (Local Time) from KCLS Reporting Station
Drizzle Drizzle  
Wind Chill: 57°   Ceiling: 1600
Heat Index: 57°   Visibility: 10mi
Dew Point: 55°   Wind: 7mph
Humidity: 94%   Direction: NA
Pressure: 29.62"   Gusts: 13mph
Location:  46.6561°N, 122.993°W
Report Text: KCLS 222355Z AUTO VRB06G11KT 10SM -DZ BKN016 BKN060 BKN080 14/13 A2962 RMK AO2
Loading
Personal Weather Stations






























Interactive Weather Map
Tropical Storm Tracking
New forecast layout! Learn more

10-Day Weather Forecast

Advertisements
Track Severe Weather on mobile